Time;durP1;ratioP1;P1;durP2;ratioP2;P2;SDS_P1;SDS_P2;PMS_P1;PMS_P2;Temp;Humidity;BMP_temperature;BMP_pressure;BME280_temperature;BME280_humidity;BME280_pressure;Samples;Min_cycle;Max_cycle;Signal;HPM_P1;HPM_P2
2021/08/13 00:00:56;;;;;;;6.82;4.10;;;;;;;;;;4996478;28;20300;-48
2021/08/13 00:03:22;;;;;;;5.53;4.47;;;;;;;;;;4996127;28;20541;-47
2021/08/13 00:05:48;;;;;;;5.50;4.20;;;;;;;;;;4996282;28;20216;-48
2021/08/13 00:08:15;;;;;;;5.75;4.30;;;;;;;;;;4995726;28;20200;-48
2021/08/13 00:10:41;;;;;;;5.15;4.40;;;;;;;;;;5000522;28;20575;-48
2021/08/13 00:13:07;;;;;;;4.65;4.15;;;;;;;;;;5010258;28;20538;-49
2021/08/13 00:15:33;;;;;;;5.00;4.13;;;;;;;;;;4996168;28;20177;-48
2021/08/13 00:17:59;;;;;;;4.60;4.13;;;;;;;;;;4995496;28;20259;-49
2021/08/13 00:20:25;;;;;;;4.95;4.18;;;;;;;;;;4996114;28;20240;-48
2021/08/13 00:22:51;;;;;;;5.45;4.18;;;;;;;;;;4999045;28;20185;-49
2021/08/13 00:25:17;;;;;;;4.50;4.10;;;;;;;;;;4997085;28;20553;-47
2021/08/13 00:27:43;;;;;;;4.60;3.83;;;;;;;;;;5000131;28;20269;-47
2021/08/13 00:30:10;;;;;;;6.63;4.55;;;;;;;;;;4996268;28;20302;-48
2021/08/13 00:32:36;;;;;;;4.00;3.53;;;;;;;;;;4995859;28;20224;-47
2021/08/13 00:35:02;;;;;;;5.28;4.05;;;;;;;;;;4997297;28;20188;-48
2021/08/13 00:37:28;;;;;;;6.55;4.28;;;;;;;;;;5014016;28;20169;-48
2021/08/13 00:39:54;;;;;;;7.28;4.20;;;;;;;;;;4997236;28;20228;-48
2021/08/13 00:42:20;;;;;;;4.78;3.80;;;;;;;;;;5002437;28;20236;-48
2021/08/13 00:44:46;;;;;;;4.20;3.80;;;;;;;;;;4995723;28;20189;-47
2021/08/13 00:47:12;;;;;;;4.57;4.10;;;;;;;;;;4994775;28;20187;-48
2021/08/13 00:49:38;;;;;;;5.45;3.90;;;;;;;;;;5012727;28;20563;-48
2021/08/13 00:52:04;;;;;;;4.97;4.10;;;;;;;;;;5023383;28;20291;-48
2021/08/13 00:54:30;;;;;;;5.15;3.67;;;;;;;;;;5014872;28;20173;-48
2021/08/13 00:56:56;;;;;;;5.28;3.92;;;;;;;;;;5031812;28;20606;-48
2021/08/13 00:59:22;;;;;;;4.40;4.00;;;;;;;;;;5029748;28;20177;-48
2021/08/13 01:01:48;;;;;;;5.22;4.07;;;;;;;;;;5014418;28;20223;-48
2021/08/13 01:04:14;;;;;;;4.55;4.00;;;;;;;;;;5022289;28;20180;-47
2021/08/13 01:06:40;;;;;;;5.15;4.43;;;;;;;;;;5014881;28;20260;-49
2021/08/13 01:09:06;;;;;;;4.95;4.03;;;;;;;;;;5014279;28;20181;-47
2021/08/13 01:11:41;;;;;;;8.90;3.85;;;;;;;;;;5026440;28;20218;-48
2021/08/13 01:14:16;;;;;;;4.00;3.60;;;;;;;;;;5034489;28;20191;-48
2021/08/13 01:16:44;;;;;;;6.07;3.95;;;;;;;;;;5005573;28;20206;-48
2021/08/13 01:19:14;;;;;;;4.22;3.83;;;;;;;;;;5034224;28;20822;-48
2021/08/13 01:21:57;;;;;;;5.28;3.50;;;;;;;;;;5030167;28;20852;-47
2021/08/13 01:24:25;;;;;;;6.15;4.07;;;;;;;;;;5014395;28;20187;-47
2021/08/13 01:26:54;;;;;;;4.90;4.00;;;;;;;;;;5028937;28;20454;-48
2021/08/13 01:29:39;;;;;;;4.97;3.63;;;;;;;;;;5033059;28;20171;-47
2021/08/13 01:32:10;;;;;;;5.43;3.30;;;;;;;;;;5024530;28;20578;-49
2021/08/13 01:34:39;;;;;;;4.38;3.97;;;;;;;;;;5017007;28;20266;-48
2021/08/13 01:37:06;;;;;;;4.45;3.33;;;;;;;;;;5019525;28;20567;-48
2021/08/13 01:39:34;;;;;;;5.03;3.63;;;;;;;;;;5015392;28;20195;-48
2021/08/13 01:42:01;;;;;;;4.80;4.25;;;;;;;;;;5014663;28;20188;-48
2021/08/13 01:44:28;;;;;;;4.20;3.80;;;;;;;;;;5014945;28;20535;-47
2021/08/13 01:46:56;;;;;;;4.60;3.55;;;;;;;;;;5014239;28;20168;-47
2021/08/13 01:49:23;;;;;;;4.55;4.15;;;;;;;;;;5013852;28;20584;-48
2021/08/13 01:51:50;;;;;;;4.15;3.70;;;;;;;;;;5014261;28;20196;-49
2021/08/13 01:54:16;;;;;;;4.93;3.47;;;;;;;;;;5014133;28;20191;-48
2021/08/13 01:56:42;;;;;;;5.63;3.80;;;;;;;;;;5027228;28;20211;-48
2021/08/13 01:59:08;;;;;;;7.90;4.03;;;;;;;;;;5033725;28;20255;-47
2021/08/13 02:01:34;;;;;;;4.32;3.47;;;;;;;;;;5014177;28;20471;-48
2021/08/13 02:04:01;;;;;;;3.78;3.47;;;;;;;;;;5013934;28;20161;-48
2021/08/13 02:06:29;;;;;;;4.78;3.38;;;;;;;;;;4994533;28;20173;-48
2021/08/13 02:08:55;;;;;;;3.85;3.45;;;;;;;;;;5003264;28;20727;-48
2021/08/13 02:11:22;;;;;;;6.13;3.60;;;;;;;;;;5024046;28;20207;-47
2021/08/13 02:13:48;;;;;;;6.10;3.55;;;;;;;;;;5034037;28;20183;-48
2021/08/13 02:16:15;;;;;;;5.35;3.75;;;;;;;;;;5016677;28;20181;-48
2021/08/13 02:18:46;;;;;;;6.53;4.13;;;;;;;;;;5017254;28;20545;-47
2021/08/13 02:21:13;;;;;;;5.50;3.67;;;;;;;;;;5017658;28;20184;-47
2021/08/13 02:23:40;;;;;;;6.05;3.70;;;;;;;;;;5017266;28;20188;-47
2021/08/13 02:26:06;;;;;;;4.47;3.83;;;;;;;;;;5025778;28;20180;-48
2021/08/13 02:28:32;;;;;;;5.13;3.60;;;;;;;;;;5028785;28;20216;-48
2021/08/13 02:30:58;;;;;;;3.75;3.35;;;;;;;;;;5017541;28;20231;-48
2021/08/13 02:33:24;;;;;;;4.75;3.63;;;;;;;;;;5017477;28;20277;-47
2021/08/13 02:35:52;;;;;;;5.13;3.63;;;;;;;;;;5017740;28;20169;-48
2021/08/13 02:38:22;;;;;;;5.60;3.90;;;;;;;;;;5016826;28;20212;-48
2021/08/13 02:41:00;;;;;;;4.15;3.75;;;;;;;;;;5019919;28;20180;-47
2021/08/13 02:43:36;;;;;;;4.43;3.30;;;;;;;;;;5016977;28;20263;-47
2021/08/13 02:46:03;;;;;;;3.70;3.33;;;;;;;;;;5022458;28;20191;-48
2021/08/13 02:48:30;;;;;;;5.32;3.50;;;;;;;;;;5016793;28;20188;-48
2021/08/13 02:50:57;;;;;;;4.78;3.63;;;;;;;;;;5016994;28;20196;-47
2021/08/13 02:53:24;;;;;;;4.47;3.90;;;;;;;;;;5016944;28;20259;-47
2021/08/13 02:55:58;;;;;;;4.90;3.72;;;;;;;;;;5022910;28;20691;-47
2021/08/13 02:58:27;;;;;;;4.25;3.47;;;;;;;;;;5036426;28;20500;-47
2021/08/13 03:00:54;;;;;;;4.00;3.45;;;;;;;;;;5028052;28;20242;-47
2021/08/13 03:03:21;;;;;;;4.13;3.63;;;;;;;;;;5036989;28;20183;-47
2021/08/13 03:05:53;;;;;;;4.00;3.50;;;;;;;;;;5022728;28;20180;-47
2021/08/13 03:08:19;;;;;;;5.15;3.53;;;;;;;;;;5015924;28;20440;-47
2021/08/13 03:10:46;;;;;;;4.15;3.38;;;;;;;;;;5022961;28;20600;-47
2021/08/13 03:13:12;;;;;;;6.03;3.47;;;;;;;;;;5026800;28;20189;-48
2021/08/13 03:15:39;;;;;;;5.72;3.53;;;;;;;;;;5022372;28;20188;-48
2021/08/13 03:18:05;;;;;;;4.43;3.50;;;;;;;;;;5016479;28;20487;-47
2021/08/13 03:20:32;;;;;;;4.65;3.15;;;;;;;;;;5016809;28;20208;-47
2021/08/13 03:22:58;;;;;;;4.88;3.50;;;;;;;;;;5025838;28;20210;-47
2021/08/13 03:25:25;;;;;;;3.90;3.50;;;;;;;;;;5019359;28;20500;-47
2021/08/13 03:27:51;;;;;;;3.88;3.47;;;;;;;;;;5035228;28;20190;-48
2021/08/13 03:30:17;;;;;;;5.03;3.47;;;;;;;;;;5028440;28;20192;-47
2021/08/13 03:32:43;;;;;;;3.85;3.55;;;;;;;;;;5019397;28;20195;-47
2021/08/13 03:35:09;;;;;;;4.13;3.33;;;;;;;;;;5019230;28;20472;-47
2021/08/13 03:37:35;;;;;;;4.60;3.25;;;;;;;;;;5015832;28;20180;-47
2021/08/13 03:40:03;;;;;;;6.03;3.50;;;;;;;;;;5015713;28;20181;-49
2021/08/13 03:42:29;;;;;;;5.75;3.42;;;;;;;;;;5017650;28;20559;-48
2021/08/13 03:44:55;;;;;;;4.90;3.08;;;;;;;;;;5029024;28;20197;-47
2021/08/13 03:47:21;;;;;;;3.38;3.08;;;;;;;;;;5015942;28;20172;-47
2021/08/13 03:49:47;;;;;;;3.97;3.58;;;;;;;;;;5017360;28;20268;-47
2021/08/13 03:52:13;;;;;;;3.97;3.50;;;;;;;;;;5016319;28;20231;-47
2021/08/13 03:54:39;;;;;;;5.43;3.50;;;;;;;;;;5020107;28;20429;-48
2021/08/13 03:57:05;;;;;;;3.88;3.47;;;;;;;;;;5031888;28;20175;-48
2021/08/13 03:59:31;;;;;;;4.35;3.45;;;;;;;;;;5033097;28;20556;-47
2021/08/13 04:01:57;;;;;;;14.80;5.22;;;;;;;;;;5016170;28;20192;-47
2021/08/13 04:04:23;;;;;;;27.70;7.50;;;;;;;;;;5015936;28;20188;-48
2021/08/13 04:06:49;;;;;;;38.58;10.30;;;;;;;;;;5019062;28;20198;-48
2021/08/13 04:09:15;;;;;;;18.58;6.65;;;;;;;;;;5025564;28;20208;-48
2021/08/13 04:11:41;;;;;;;28.67;8.63;;;;;;;;;;5024903;28;20196;-48
2021/08/13 04:14:07;;;;;;;23.25;7.35;;;;;;;;;;5033278;28;20268;-47
2021/08/13 04:16:33;;;;;;;25.92;7.80;;;;;;;;;;5016526;28;20186;-47
2021/08/13 04:18:59;;;;;;;23.63;7.70;;;;;;;;;;5015159;28;20164;-47
2021/08/13 04:21:25;;;;;;;22.27;7.40;;;;;;;;;;4996074;28;20486;-48
2021/08/13 04:23:51;;;;;;;18.98;6.80;;;;;;;;;;5005575;28;20180;-48
2021/08/13 04:26:17;;;;;;;15.52;6.60;;;;;;;;;;5025207;28;20497;-49
2021/08/13 04:28:43;;;;;;;14.05;6.53;;;;;;;;;;5034877;28;20211;-47
2021/08/13 04:31:09;;;;;;;18.10;6.05;;;;;;;;;;5019468;28;20465;-47
2021/08/13 04:33:35;;;;;;;11.18;5.57;;;;;;;;;;5015065;28;20212;-47
2021/08/13 04:36:01;;;;;;;17.25;5.95;;;;;;;;;;5015333;28;20219;-47
2021/08/13 04:38:27;;;;;;;15.20;6.32;;;;;;;;;;5014355;28;20707;-49
2021/08/13 04:40:53;;;;;;;14.68;6.70;;;;;;;;;;5021335;28;20582;-47
2021/08/13 04:43:19;;;;;;;12.73;6.22;;;;;;;;;;5015580;28;20215;-47
2021/08/13 04:45:45;;;;;;;15.35;6.28;;;;;;;;;;5028152;28;20572;-47
2021/08/13 04:48:11;;;;;;;11.52;5.85;;;;;;;;;;5031128;28;20181;-48
2021/08/13 04:50:37;;;;;;;15.20;5.50;;;;;;;;;;5015049;28;20646;-47
2021/08/13 04:53:03;;;;;;;14.68;5.70;;;;;;;;;;5015307;28;20207;-48
2021/08/13 04:55:29;;;;;;;17.95;6.60;;;;;;;;;;5017678;28;20179;-46
2021/08/13 04:57:55;;;;;;;16.27;5.50;;;;;;;;;;5034478;28;20179;-46
2021/08/13 05:00:57;;;;;;;12.30;4.88;;;;;;;;;;5045759;28;20269;-47
2021/08/13 05:04:07;;;;;;;10.82;4.65;;;;;;;;;;5166037;27;20273;-46
2021/08/13 05:06:33;;;;;;;12.30;5.10;;;;;;;;;;5146414;27;20588;-47
2021/08/13 05:08:59;;;;;;;11.82;4.88;;;;;;;;;;5129347;27;20192;-47
2021/08/13 05:11:25;;;;;;;14.98;5.05;;;;;;;;;;5105260;28;20185;-44
2021/08/13 05:13:51;;;;;;;12.00;5.05;;;;;;;;;;5132859;28;20175;-45
2021/08/13 05:16:17;;;;;;;10.05;4.55;;;;;;;;;;5115379;28;20177;-44
2021/08/13 05:18:43;;;;;;;12.45;4.40;;;;;;;;;;5124375;28;20566;-44
2021/08/13 05:21:09;;;;;;;8.75;5.03;;;;;;;;;;5111925;28;20214;-44
2021/08/13 05:23:36;;;;;;;9.90;4.68;;;;;;;;;;5109524;28;20205;-44
2021/08/13 05:26:02;;;;;;;9.20;4.40;;;;;;;;;;5120795;28;20252;-46
2021/08/13 05:28:28;;;;;;;9.40;4.25;;;;;;;;;;5131947;28;20192;-45
2021/08/13 05:30:54;;;;;;;9.93;5.10;;;;;;;;;;5118240;28;20179;-45
2021/08/13 05:33:20;;;;;;;9.27;4.65;;;;;;;;;;5112019;28;20199;-45
2021/08/13 05:35:46;;;;;;;9.05;4.28;;;;;;;;;;5126527;28;20192;-45
2021/08/13 05:38:12;;;;;;;4.88;3.72;;;;;;;;;;5109534;28;20202;-44
2021/08/13 05:40:38;;;;;;;7.18;4.35;;;;;;;;;;5103756;28;20186;-44
2021/08/13 05:43:04;;;;;;;9.63;4.68;;;;;;;;;;5091210;28;20202;-44
2021/08/13 05:45:30;;;;;;;9.30;4.50;;;;;;;;;;5102383;28;20184;-44
2021/08/13 05:47:56;;;;;;;9.07;4.05;;;;;;;;;;5110924;28;20166;-44
2021/08/13 05:50:22;;;;;;;6.20;4.10;;;;;;;;;;5106148;28;20178;-44
2021/08/13 05:52:48;;;;;;;5.88;4.13;;;;;;;;;;5091270;28;20172;-44
2021/08/13 05:55:15;;;;;;;6.78;3.92;;;;;;;;;;5103443;28;20185;-44
2021/08/13 05:57:42;;;;;;;5.78;4.20;;;;;;;;;;5090588;28;20537;-44
2021/08/13 06:00:08;;;;;;;6.85;4.45;;;;;;;;;;5090478;28;20235;-44
2021/08/13 06:02:35;;;;;;;6.25;4.40;;;;;;;;;;5091046;28;20198;-44
2021/08/13 06:05:01;;;;;;;8.35;4.20;;;;;;;;;;5091534;28;20253;-44
2021/08/13 06:07:27;;;;;;;6.03;4.15;;;;;;;;;;5106719;28;20447;-44
2021/08/13 06:09:53;;;;;;;4.38;3.90;;;;;;;;;;5099951;28;20228;-44
2021/08/13 06:12:19;;;;;;;5.22;4.22;;;;;;;;;;5109268;28;20188;-44
2021/08/13 06:14:45;;;;;;;6.05;4.25;;;;;;;;;;5096724;28;20205;-44
2021/08/13 06:17:11;;;;;;;4.20;3.80;;;;;;;;;;5076940;28;20171;-44
2021/08/13 06:19:37;;;;;;;4.68;4.15;;;;;;;;;;5077392;28;20232;-44
2021/08/13 06:22:04;;;;;;;6.63;4.43;;;;;;;;;;5077467;28;20186;-44
2021/08/13 06:24:30;;;;;;;9.60;4.60;;;;;;;;;;5090089;28;20183;-44
2021/08/13 06:26:56;;;;;;;5.85;4.10;;;;;;;;;;5091443;28;20484;-44
2021/08/13 06:29:22;;;;;;;7.15;4.38;;;;;;;;;;5095874;28;20165;-44
2021/08/13 06:31:49;;;;;;;5.45;4.47;;;;;;;;;;5076858;28;20171;-44
2021/08/13 06:34:17;;;;;;;5.28;4.10;;;;;;;;;;5077032;28;20186;-44
2021/08/13 06:36:44;;;;;;;6.10;4.50;;;;;;;;;;5077211;28;20216;-44
2021/08/13 06:39:10;;;;;;;6.95;4.50;;;;;;;;;;5079985;28;20189;-44
2021/08/13 06:41:36;;;;;;;5.70;4.40;;;;;;;;;;5084962;28;20166;-44
2021/08/13 06:44:02;;;;;;;4.43;4.03;;;;;;;;;;5076724;28;20557;-44
2021/08/13 06:46:28;;;;;;;6.95;4.55;;;;;;;;;;5095480;28;20170;-44
2021/08/13 06:48:54;;;;;;;5.30;4.13;;;;;;;;;;5096208;28;20598;-44
2021/08/13 06:51:20;;;;;;;7.05;4.70;;;;;;;;;;5096558;28;20205;-44
2021/08/13 06:53:46;;;;;;;6.63;4.38;;;;;;;;;;5094995;28;20166;-44
2021/08/13 06:56:12;;;;;;;5.63;4.50;;;;;;;;;;5082668;28;20561;-44
2021/08/13 06:58:38;;;;;;;5.78;4.40;;;;;;;;;;5085972;28;20206;-44
2021/08/13 07:01:04;;;;;;;7.38;4.57;;;;;;;;;;5080810;28;20422;-44
2021/08/13 07:03:30;;;;;;;4.38;3.97;;;;;;;;;;5076244;28;20210;-44
2021/08/13 07:05:56;;;;;;;6.03;4.53;;;;;;;;;;5076204;28;20202;-44
2021/08/13 07:08:22;;;;;;;5.90;4.80;;;;;;;;;;5076280;28;20177;-44
2021/08/13 07:10:48;;;;;;;5.00;4.50;;;;;;;;;;5087359;28;20250;-44
2021/08/13 07:13:14;;;;;;;8.18;4.55;;;;;;;;;;5075978;28;20179;-45
2021/08/13 07:15:40;;;;;;;4.93;4.43;;;;;;;;;;5075927;28;20232;-45
2021/08/13 07:18:06;;;;;;;4.95;4.40;;;;;;;;;;5075723;28;20228;-45
2021/08/13 07:20:32;;;;;;;5.57;4.97;;;;;;;;;;5076105;28;20181;-45
2021/08/13 07:22:58;;;;;;;6.47;4.50;;;;;;;;;;5075697;28;20202;-44
2021/08/13 07:25:24;;;;;;;5.45;4.72;;;;;;;;;;5087427;28;20208;-44
2021/08/13 07:27:50;;;;;;;5.78;4.40;;;;;;;;;;5075059;28;20216;-44
2021/08/13 07:30:17;;;;;;;6.75;5.22;;;;;;;;;;5075703;28;20198;-44
2021/08/13 07:32:46;;;;;;;6.28;4.15;;;;;;;;;;5075827;28;20445;-44
2021/08/13 07:35:13;;;;;;;7.07;4.50;;;;;;;;;;5075323;28;20178;-44
2021/08/13 07:37:39;;;;;;;6.05;4.38;;;;;;;;;;5086513;28;20215;-44
2021/08/13 07:40:05;;;;;;;6.68;4.80;;;;;;;;;;5083513;28;20189;-44
2021/08/13 07:42:33;;;;;;;5.80;4.93;;;;;;;;;;5081918;28;20202;-44
2021/08/13 07:44:59;;;;;;;5.65;4.82;;;;;;;;;;5081175;28;20180;-44
2021/08/13 07:47:25;;;;;;;5.75;5.15;;;;;;;;;;5094520;28;20162;-44
2021/08/13 07:49:52;;;;;;;6.30;4.50;;;;;;;;;;5095306;28;20173;-44
2021/08/13 07:52:18;;;;;;;7.60;5.07;;;;;;;;;;5095045;28;20261;-44
2021/08/13 07:54:44;;;;;;;6.43;5.28;;;;;;;;;;5091067;28;20216;-44
2021/08/13 07:57:10;;;;;;;7.35;6.13;;;;;;;;;;5078367;28;20210;-44
2021/08/13 07:59:37;;;;;;;5.90;5.30;;;;;;;;;;5074849;28;20238;-44
2021/08/13 08:02:03;;;;;;;7.50;5.57;;;;;;;;;;5074759;28;20198;-44
2021/08/13 08:04:29;;;;;;;10.05;5.32;;;;;;;;;;5074889;28;20163;-45
2021/08/13 08:06:58;;;;;;;10.02;5.68;;;;;;;;;;5090828;28;20673;-45
2021/08/13 08:09:24;;;;;;;7.75;5.75;;;;;;;;;;5088436;28;20174;-44
2021/08/13 08:11:50;;;;;;;5.97;4.82;;;;;;;;;;5087549;28;20174;-44
2021/08/13 08:14:16;;;;;;;7.10;5.07;;;;;;;;;;5094372;28;20166;-44
2021/08/13 08:16:42;;;;;;;7.45;5.25;;;;;;;;;;5074670;28;20163;-45
2021/08/13 08:19:08;;;;;;;5.57;4.97;;;;;;;;;;5073817;28;20530;-45
2021/08/13 08:21:34;;;;;;;6.07;5.40;;;;;;;;;;5076786;28;20189;-44
2021/08/13 08:24:00;;;;;;;6.57;5.82;;;;;;;;;;5088017;28;20198;-44
2021/08/13 08:26:26;;;;;;;8.40;5.82;;;;;;;;;;5074152;28;20221;-44
2021/08/13 08:28:52;;;;;;;7.43;5.32;;;;;;;;;;5073570;28;20169;-44
2021/08/13 08:31:18;;;;;;;6.57;5.57;;;;;;;;;;5074403;28;20171;-44
2021/08/13 08:33:44;;;;;;;7.15;5.45;;;;;;;;;;5086938;28;20178;-44
2021/08/13 08:36:10;;;;;;;6.82;5.38;;;;;;;;;;5093146;28;20185;-45
2021/08/13 08:38:36;;;;;;;7.95;6.20;;;;;;;;;;5082621;28;20205;-44
2021/08/13 08:41:04;;;;;;;6.80;5.78;;;;;;;;;;5094485;28;20174;-44
2021/08/13 08:43:30;;;;;;;8.15;6.10;;;;;;;;;;5090043;28;20217;-45
2021/08/13 08:45:56;;;;;;;6.32;5.65;;;;;;;;;;5089242;28;20451;-44
2021/08/13 08:48:23;;;;;;;7.35;5.55;;;;;;;;;;5073652;28;20170;-45
2021/08/13 08:50:49;;;;;;;7.57;6.10;;;;;;;;;;5074456;28;20185;-44
2021/08/13 08:53:16;;;;;;;6.05;5.45;;;;;;;;;;5074552;28;20185;-44
2021/08/13 08:55:42;;;;;;;6.88;5.15;;;;;;;;;;5074496;28;20588;-44
2021/08/13 08:58:10;;;;;;;9.18;6.05;;;;;;;;;;5077867;28;20185;-44
2021/08/13 09:00:36;;;;;;;10.00;6.07;;;;;;;;;;5083083;28;20179;-45
2021/08/13 09:03:02;;;;;;;9.45;5.82;;;;;;;;;;5092765;28;20205;-44
2021/08/13 09:05:28;;;;;;;7.35;5.63;;;;;;;;;;5089366;28;20175;-44
2021/08/13 09:07:54;;;;;;;7.57;4.80;;;;;;;;;;5074131;28;20189;-45
2021/08/13 09:10:21;;;;;;;6.95;5.65;;;;;;;;;;5074619;28;20178;-44
2021/08/13 09:12:47;;;;;;;9.20;5.55;;;;;;;;;;5074073;28;20174;-45
2021/08/13 09:15:24;;;;;;;6.65;5.53;;;;;;;;;;5081672;28;20181;-44
2021/08/13 09:18:09;;;;;;;6.25;5.65;;;;;;;;;;5059162;28;20186;-45
2021/08/13 09:20:39;;;;;;;6.85;5.75;;;;;;;;;;5074093;28;20288;-45
2021/08/13 09:23:05;;;;;;;7.40;5.40;;;;;;;;;;5074083;28;20197;-45
2021/08/13 09:25:31;;;;;;;7.32;6.25;;;;;;;;;;5074336;28;20174;-45
2021/08/13 09:27:57;;;;;;;7.32;6.32;;;;;;;;;;5073207;28;20189;-45
2021/08/13 09:30:23;;;;;;;8.48;7.00;;;;;;;;;;5083005;28;20222;-45
2021/08/13 09:33:05;;;;;;;9.43;7.03;;;;;;;;;;5077380;28;20185;-44
2021/08/13 09:35:39;;;;;;;9.27;6.32;;;;;;;;;;5073984;28;20181;-44
2021/08/13 09:38:12;;;;;;;7.20;6.00;;;;;;;;;;5073455;28;20191;-44
2021/08/13 09:40:39;;;;;;;7.55;6.53;;;;;;;;;;5074495;28;20204;-44
2021/08/13 09:43:05;;;;;;;8.57;6.07;;;;;;;;;;5091374;28;20289;-43
2021/08/13 09:45:31;;;;;;;8.85;6.70;;;;;;;;;;5083602;28;20680;-45
2021/08/13 09:47:57;;;;;;;10.02;6.97;;;;;;;;;;5091298;28;20185;-44
2021/08/13 09:50:36;;;;;;;7.18;6.18;;;;;;;;;;5092494;28;20457;-45
2021/08/13 09:53:12;;;;;;;8.20;6.68;;;;;;;;;;5077441;28;20175;-44
2021/08/13 09:55:39;;;;;;;7.72;6.45;;;;;;;;;;5077989;28;20178;-45
2021/08/13 09:58:07;;;;;;;7.60;6.10;;;;;;;;;;5077181;28;20167;-45
2021/08/13 10:00:42;;;;;;;7.90;7.03;;;;;;;;;;5080809;28;20444;-45
2021/08/13 10:03:10;;;;;;;8.38;7.47;;;;;;;;;;5077122;28;20296;-45
2021/08/13 10:05:36;;;;;;;8.90;6.85;;;;;;;;;;5083360;28;20174;-44
2021/08/13 10:08:03;;;;;;;8.77;7.53;;;;;;;;;;5096944;28;20432;-45
2021/08/13 10:10:30;;;;;;;9.63;7.53;;;;;;;;;;5069688;28;20186;-44
2021/08/13 10:12:58;;;;;;;9.90;7.82;;;;;;;;;;5077248;28;20273;-45
2021/08/13 10:15:28;;;;;;;8.73;7.53;;;;;;;;;;5081009;28;20617;-45
2021/08/13 10:17:58;;;;;;;8.65;7.20;;;;;;;;;;5094249;28;20743;-44
2021/08/13 10:20:25;;;;;;;10.65;8.20;;;;;;;;;;5093067;28;20288;-45
2021/08/13 10:22:52;;;;;;;8.52;7.68;;;;;;;;;;5083831;28;20216;-45
2021/08/13 10:25:18;;;;;;;8.40;7.40;;;;;;;;;;5097843;28;20162;-45
2021/08/13 10:27:44;;;;;;;8.90;7.25;;;;;;;;;;5095664;28;20205;-45
2021/08/13 10:30:11;;;;;;;11.30;7.82;;;;;;;;;;5083965;28;20211;-45
2021/08/13 10:32:37;;;;;;;9.80;8.43;;;;;;;;;;5081897;28;20187;-45
2021/08/13 10:35:03;;;;;;;8.82;7.53;;;;;;;;;;5076973;28;20171;-45
2021/08/13 10:37:30;;;;;;;9.38;7.22;;;;;;;;;;5076634;28;20256;-44
2021/08/13 10:39:56;;;;;;;8.60;7.65;;;;;;;;;;5076851;28;20529;-45
2021/08/13 10:42:24;;;;;;;10.00;7.63;;;;;;;;;;5088854;28;20204;-47
2021/08/13 10:45:01;;;;;;;9.43;7.43;;;;;;;;;;5092668;28;20184;-47
2021/08/13 10:47:29;;;;;;;12.32;8.07;;;;;;;;;;5082883;28;20174;-44
2021/08/13 10:49:56;;;;;;;9.77;8.75;;;;;;;;;;5076684;28;20556;-44
2021/08/13 10:52:36;;;;;;;10.40;8.45;;;;;;;;;;5076665;28;20440;-44
2021/08/13 10:55:03;;;;;;;9.88;8.25;;;;;;;;;;5077284;28;20558;-45
2021/08/13 10:57:47;;;;;;;10.63;8.50;;;;;;;;;;5096152;28;20209;-44
2021/08/13 11:00:14;;;;;;;11.75;7.75;;;;;;;;;;5093247;28;20269;-44
2021/08/13 11:02:40;;;;;;;10.40;8.65;;;;;;;;;;5076263;28;20241;-43
2021/08/13 11:05:06;;;;;;;9.13;8.20;;;;;;;;;;5076506;28;20189;-44
2021/08/13 11:07:50;;;;;;;9.40;8.23;;;;;;;;;;5086070;28;20188;-44
2021/08/13 11:10:35;;;;;;;9.77;8.32;;;;;;;;;;5076569;28;20220;-44
2021/08/13 11:13:30;;;;;;;10.93;8.27;;;;;;;;;;5086210;28;20231;-44
2021/08/13 11:15:57;;;;;;;9.40;8.40;;;;;;;;;;5071182;28;20235;-44
2021/08/13 11:18:38;;;;;;;8.85;7.90;;;;;;;;;;5076900;28;20181;-45
2021/08/13 11:21:05;;;;;;;9.30;7.97;;;;;;;;;;5076117;28;20178;-44
2021/08/13 11:23:31;;;;;;;9.50;8.50;;;;;;;;;;5078014;28;20479;-44
2021/08/13 11:25:57;;;;;;;9.52;7.95;;;;;;;;;;5096242;28;20636;-44
2021/08/13 11:28:28;;;;;;;10.75;7.88;;;;;;;;;;5094278;28;20253;-44
2021/08/13 11:30:55;;;;;;;11.43;8.60;;;;;;;;;;5085883;28;20220;-44
2021/08/13 11:33:27;;;;;;;10.18;8.85;;;;;;;;;;5077530;28;20224;-44
2021/08/13 11:35:54;;;;;;;9.20;8.10;;;;;;;;;;5075864;28;20178;-44
2021/08/13 11:38:39;;;;;;;8.75;7.55;;;;;;;;;;5075130;28;20640;-44
2021/08/13 11:41:24;;;;;;;8.80;7.90;;;;;;;;;;5076566;28;20186;-44
2021/08/13 11:43:54;;;;;;;12.52;8.20;;;;;;;;;;5095741;28;20284;-44
2021/08/13 11:46:24;;;;;;;11.18;8.40;;;;;;;;;;5089787;28;20176;-44
2021/08/13 11:48:52;;;;;;;9.80;8.07;;;;;;;;;;5075021;28;20202;-45
2021/08/13 11:51:18;;;;;;;11.85;8.10;;;;;;;;;;5075286;28;20182;-44
2021/08/13 11:53:44;;;;;;;9.40;8.40;;;;;;;;;;5078351;28;20256;-44
2021/08/13 11:56:20;;;;;;;11.27;7.88;;;;;;;;;;5093974;28;20185;-44
2021/08/13 11:58:56;;;;;;;10.02;8.20;;;;;;;;;;5094792;28;20205;-44
2021/08/13 12:01:22;;;;;;;11.10;8.48;;;;;;;;;;5082338;28;20186;-44
2021/08/13 12:03:50;;;;;;;8.57;7.18;;;;;;;;;;5095416;28;20201;-44
2021/08/13 12:06:16;;;;;;;8.48;7.53;;;;;;;;;;5086354;28;20202;-44
2021/08/13 12:08:43;;;;;;;8.80;7.90;;;;;;;;;;5085823;28;20189;-44
2021/08/13 12:11:09;;;;;;;9.52;7.65;;;;;;;;;;5090229;28;20170;-44
2021/08/13 12:13:35;;;;;;;9.82;7.90;;;;;;;;;;5074608;28;20166;-44
2021/08/13 12:16:03;;;;;;;9.32;7.82;;;;;;;;;;5086309;28;20464;-46
2021/08/13 12:18:30;;;;;;;9.07;8.13;;;;;;;;;;5075079;28;20213;-46
2021/08/13 12:20:56;;;;;;;9.23;8.13;;;;;;;;;;5074644;28;20339;-47
2021/08/13 12:23:22;;;;;;;10.57;8.20;;;;;;;;;;5079531;28;20288;-46
2021/08/13 12:25:48;;;;;;;7.95;7.15;;;;;;;;;;5095094;28;20347;-46
2021/08/13 12:28:15;;;;;;;8.43;7.40;;;;;;;;;;5094462;28;20181;-46
2021/08/13 12:30:41;;;;;;;10.52;8.50;;;;;;;;;;5085988;28;20174;-46
2021/08/13 12:33:16;;;;;;;10.65;8.50;;;;;;;;;;5090646;28;20184;-46
2021/08/13 12:35:43;;;;;;;9.15;8.00;;;;;;;;;;5090671;28;20616;-46
2021/08/13 12:38:10;;;;;;;10.13;7.72;;;;;;;;;;5074122;28;20434;-46
2021/08/13 12:40:40;;;;;;;8.27;7.38;;;;;;;;;;5074577;28;20175;-46
2021/08/13 12:43:06;;;;;;;10.57;7.70;;;;;;;;;;5092172;28;20196;-46
2021/08/13 12:45:32;;;;;;;9.13;7.82;;;;;;;;;;5090260;28;20197;-46
2021/08/13 12:47:58;;;;;;;9.35;7.85;;;;;;;;;;5078737;28;20171;-46
2021/08/13 12:50:24;;;;;;;9.00;8.07;;;;;;;;;;5074894;28;20174;-46
2021/08/13 12:53:10;;;;;;;9.35;7.43;;;;;;;;;;5078986;28;20173;-46
2021/08/13 12:55:37;;;;;;;9.10;7.40;;;;;;;;;;5086366;28;20185;-46
2021/08/13 12:58:04;;;;;;;7.97;7.18;;;;;;;;;;5084491;28;20178;-46
2021/08/13 13:00:31;;;;;;;9.23;7.38;;;;;;;;;;5080874;28;20186;-46
2021/08/13 13:03:29;;;;;;;9.43;7.65;;;;;;;;;;5078917;28;20699;-46
2021/08/13 13:06:08;;;;;;;8.43;7.55;;;;;;;;;;5045774;28;20225;-47
2021/08/13 13:08:41;;;;;;;9.85;7.28;;;;;;;;;;5076700;28;20265;-45
2021/08/13 13:11:07;;;;;;;8.15;7.35;;;;;;;;;;5074209;28;20577;-46
2021/08/13 13:13:33;;;;;;;8.82;7.35;;;;;;;;;;5074093;28;20182;-46
2021/08/13 13:16:06;;;;;;;7.20;6.35;;;;;;;;;;5085247;28;20200;-46
2021/08/13 13:18:32;;;;;;;7.95;6.55;;;;;;;;;;5074048;28;20186;-47
2021/08/13 13:20:58;;;;;;;10.25;6.93;;;;;;;;;;5074253;28;20178;-46
2021/08/13 13:23:33;;;;;;;10.15;7.63;;;;;;;;;;5073709;28;20198;-46
2021/08/13 13:26:08;;;;;;;8.88;6.78;;;;;;;;;;5078641;28;20189;-46
2021/08/13 13:28:34;;;;;;;10.68;6.80;;;;;;;;;;5077835;28;20162;-46
2021/08/13 13:31:11;;;;;;;8.20;7.20;;;;;;;;;;5089328;28;20204;-46
2021/08/13 13:33:37;;;;;;;7.50;6.78;;;;;;;;;;5077926;28;20166;-46
2021/08/13 13:36:04;;;;;;;7.93;7.10;;;;;;;;;;5085070;28;20212;-46
2021/08/13 13:38:41;;;;;;;7.82;6.63;;;;;;;;;;5097270;28;20521;-46
2021/08/13 13:41:08;;;;;;;8.63;7.00;;;;;;;;;;5098365;28;20525;-46
2021/08/13 13:43:34;;;;;;;7.90;6.93;;;;;;;;;;5098092;28;20197;-47
2021/08/13 13:46:00;;;;;;;8.90;6.45;;;;;;;;;;5093992;28;20314;-47
2021/08/13 13:48:27;;;;;;;7.57;6.80;;;;;;;;;;5078304;28;20202;-46
2021/08/13 13:50:53;;;;;;;7.53;6.45;;;;;;;;;;5077763;28;20174;-46
2021/08/13 13:53:20;;;;;;;7.40;6.13;;;;;;;;;;5077923;28;20603;-46
2021/08/13 13:55:46;;;;;;;7.68;6.88;;;;;;;;;;5080664;28;20183;-46
2021/08/13 13:58:12;;;;;;;8.63;6.75;;;;;;;;;;5096849;28;20182;-46
2021/08/13 14:00:38;;;;;;;8.43;7.53;;;;;;;;;;5089113;28;20366;-46
2021/08/13 14:03:05;;;;;;;9.43;6.63;;;;;;;;;;5093187;28;20448;-46
2021/08/13 14:05:31;;;;;;;8.25;6.82;;;;;;;;;;5095154;28;20270;-46
2021/08/13 14:07:58;;;;;;;7.63;6.82;;;;;;;;;;5076870;28;20175;-46
2021/08/13 14:10:29;;;;;;;9.07;7.45;;;;;;;;;;5083301;28;20174;-46
2021/08/13 14:12:59;;;;;;;7.43;6.35;;;;;;;;;;5083709;28;20188;-47
2021/08/13 14:15:25;;;;;;;7.47;6.78;;;;;;;;;;5084444;28;20181;-46
2021/08/13 14:17:52;;;;;;;8.27;7.03;;;;;;;;;;5076757;28;20174;-46
2021/08/13 14:20:18;;;;;;;8.50;7.05;;;;;;;;;;5079350;28;20519;-46
2021/08/13 14:22:44;;;;;;;11.95;6.82;;;;;;;;;;5095014;28;20447;-46
2021/08/13 14:25:12;;;;;;;8.77;7.20;;;;;;;;;;5082154;28;20565;-46
2021/08/13 14:27:38;;;;;;;7.70;6.63;;;;;;;;;;5076961;28;20231;-46
2021/08/13 14:30:05;;;;;;;7.53;6.47;;;;;;;;;;5093407;28;20205;-47
2021/08/13 14:32:31;;;;;;;10.70;7.10;;;;;;;;;;5077373;28;20197;-47
2021/08/13 14:34:57;;;;;;;11.20;8.20;;;;;;;;;;5077535;28;20187;-46
2021/08/13 14:37:23;;;;;;;10.05;7.22;;;;;;;;;;5090980;28;20201;-47
2021/08/13 14:39:49;;;;;;;8.63;7.28;;;;;;;;;;5096947;28;20188;-46
2021/08/13 14:42:15;;;;;;;10.32;6.57;;;;;;;;;;5090506;28;20170;-47
2021/08/13 14:44:41;;;;;;;8.35;6.97;;;;;;;;;;5094845;28;20581;-46